KHH weather

Kaohsiung International Airport
Kaohsiung City, Kaohsiung (municipality), Taiwan

Public forecast

Using degrees Celsius for public forecast. Weather courtesy of forecast.io.

METAR (pilot weather report)

Retrieved 2019/07/19 14:30 UTC (0 seconds ago):

RCKH 191430Z 32004KT 9999 -SHRA FEW010 BKN025 BKN060 25/25 Q1006 NOSIG RMK A2971

TAF (pilot weather forecast)

Retrieved 2019/07/19 12:00 UTC (2 hours ago):

TAF RCKH 191100Z 1912/2018 06005KT 6000 FEW012 SCT020 BKN032 TEMPO 1912/1916 3200 SHRA SCT006 BKN011 FEW012CB BKN030 TEMPO 1920/1924 15008KT 3200 SHRA SCT006 BKN011 FEW012CB BKN030 BECMG 2000/2002 23012KT TEMPO 2004/2010 5000 SHRA FEW010 FEW015TCU BKN020 BKN050 BECMG 2010/2012 30005KT